createdAt,value
2019-06-20T00:00:57.874Z,4.83
2019-06-20T00:02:06.263Z,5.20
2019-06-20T00:03:14.865Z,4.77
2019-06-20T00:04:22.885Z,5.13
2019-06-20T00:05:30.200Z,4.93
2019-06-20T00:06:39.290Z,4.60
2019-06-20T00:07:46.498Z,5.10
2019-06-20T00:08:54.503Z,5.17
2019-06-20T00:10:02.795Z,5.60
2019-06-20T00:11:11.972Z,7.30
2019-06-20T00:12:19.227Z,4.97
2019-06-20T00:13:27.245Z,5.63
2019-06-20T00:14:34.478Z,5.23
2019-06-20T00:15:42.967Z,5.13
2019-06-20T00:16:50.169Z,5.17
2019-06-20T00:17:58.157Z,7.03
2019-06-20T00:19:05.357Z,3.87
2019-06-20T00:20:13.980Z,4.27
2019-06-20T00:21:21.203Z,6.87
2019-06-20T00:22:29.190Z,6.10
2019-06-20T00:23:36.400Z,3.93
2019-06-20T00:24:44.456Z,3.50
2019-06-20T00:25:51.686Z,4.40
2019-06-20T00:26:59.685Z,3.97
2019-06-20T00:28:06.891Z,3.20
2019-06-20T00:29:14.886Z,3.83
2019-06-20T00:30:22.291Z,3.63
2019-06-20T00:31:30.298Z,3.63
2019-06-20T00:32:37.521Z,6.10
2019-06-20T00:33:45.557Z,4.90
2019-06-20T00:34:52.754Z,3.13
2019-06-20T00:36:00.758Z,3.53
2019-06-20T00:37:07.956Z,3.83
2019-06-20T00:38:16.935Z,6.77
2019-06-20T00:39:24.160Z,2.63
2019-06-20T00:40:32.195Z,2.87
2019-06-20T00:41:39.622Z,2.43
2019-06-20T00:42:47.637Z,2.70
2019-06-20T00:43:54.892Z,3.47
2019-06-20T00:45:02.884Z,3.00
2019-06-20T00:46:10.109Z,2.60
2019-06-20T00:47:18.113Z,3.27
2019-06-20T00:48:25.339Z,2.27
2019-06-20T00:49:33.330Z,2.53
2019-06-20T00:50:40.541Z,4.40
2019-06-20T00:51:48.547Z,4.37
2019-06-20T00:52:55.772Z,2.80
2019-06-20T00:54:03.778Z,3.83
2019-06-20T00:55:11.214Z,3.50
2019-06-20T00:56:19.238Z,3.50
2019-06-20T00:57:26.459Z,2.90
2019-06-20T00:58:34.465Z,2.90
2019-06-20T00:59:41.675Z,4.20
2019-06-20T01:00:49.669Z,4.77
2019-06-20T01:01:56.883Z,3.57
2019-06-20T01:03:05.395Z,3.87
2019-06-20T01:04:12.619Z,4.63
2019-06-20T01:05:20.610Z,3.00
2019-06-20T01:06:27.928Z,3.87
2019-06-20T01:07:35.931Z,3.70
2019-06-20T01:08:43.170Z,4.97
2019-06-20T01:09:51.162Z,4.73
2019-06-20T01:10:58.411Z,3.77
2019-06-20T01:12:06.363Z,3.17
2019-06-20T01:13:13.573Z,4.17
2019-06-20T01:14:21.595Z,3.53
2019-06-20T01:15:28.806Z,3.43
2019-06-20T01:16:36.796Z,3.70
2019-06-20T01:17:44.009Z,3.77
2019-06-20T01:18:51.997Z,3.30
2019-06-20T01:19:59.227Z,2.80
2019-06-20T01:21:09.795Z,4.40
2019-06-20T01:22:17.006Z,3.50
2019-06-20T01:23:24.996Z,5.63
2019-06-20T01:24:32.280Z,3.50
2019-06-20T01:25:44.054Z,5.53
2019-06-20T01:26:51.252Z,4.03
2019-06-20T01:27:59.270Z,4.37
2019-06-20T01:29:06.660Z,4.43
2019-06-20T01:30:15.357Z,4.97
2019-06-20T01:31:22.596Z,3.60
2019-06-20T01:32:30.585Z,3.80
2019-06-20T01:33:37.810Z,5.53
2019-06-20T01:34:45.806Z,4.33
2019-06-20T01:35:54.093Z,3.37
2019-06-20T01:37:02.112Z,3.93
2019-06-20T01:38:09.417Z,3.57
2019-06-20T01:39:17.423Z,4.73
2019-06-20T01:40:24.632Z,3.63
2019-06-20T01:41:32.696Z,3.43
2019-06-20T01:42:39.936Z,3.27
2019-06-20T01:43:50.876Z,3.97
2019-06-20T01:44:56.862Z,2.83
2019-06-20T01:46:05.273Z,4.53
2019-06-20T01:47:12.500Z,3.53
2019-06-20T01:48:20.519Z,3.67
2019-06-20T01:49:27.715Z,5.60
2019-06-20T01:50:35.707Z,5.57
2019-06-20T01:51:42.931Z,4.10
2019-06-20T01:52:50.938Z,4.20
2019-06-20T01:53:58.210Z,4.90
2019-06-20T01:55:06.934Z,3.70
2019-06-20T01:56:14.159Z,3.57
2019-06-20T01:57:22.360Z,4.63
2019-06-20T01:58:29.600Z,3.97
2019-06-20T01:59:37.618Z,3.63
2019-06-20T02:00:48.388Z,3.03
2019-06-20T02:01:56.400Z,3.23
2019-06-20T02:03:03.788Z,4.00
2019-06-20T02:04:11.781Z,3.57
2019-06-20T02:05:19.105Z,4.23
2019-06-20T02:06:27.099Z,3.70
2019-06-20T02:07:34.310Z,4.00
2019-06-20T02:08:42.305Z,3.50
2019-06-20T02:09:49.511Z,3.80
2019-06-20T02:10:57.514Z,3.57
2019-06-20T02:12:04.982Z,3.33
2019-06-20T02:13:13.375Z,5.07
2019-06-20T02:14:20.600Z,3.97
2019-06-20T02:15:28.621Z,3.90
2019-06-20T02:16:35.847Z,4.07
2019-06-20T02:17:43.855Z,3.77
2019-06-20T02:18:51.093Z,4.87
2019-06-20T02:19:59.105Z,4.73
2019-06-20T02:21:07.195Z,3.17
2019-06-20T02:22:15.191Z,3.90
2019-06-20T02:23:23.436Z,3.53
2019-06-20T02:24:31.439Z,3.23
2019-06-20T02:25:38.772Z,4.37
2019-06-20T02:26:46.774Z,3.67
2019-06-20T02:27:54.001Z,3.30
2019-06-20T02:29:02.007Z,3.33
2019-06-20T02:30:09.432Z,3.97
2019-06-20T02:31:17.421Z,3.30
2019-06-20T02:32:24.631Z,3.10
2019-06-20T02:33:32.659Z,3.47
2019-06-20T02:34:39.933Z,3.63
2019-06-20T02:35:48.054Z,3.70
2019-06-20T02:36:55.257Z,3.63
2019-06-20T02:38:03.248Z,3.60
2019-06-20T02:39:10.561Z,4.33
2019-06-20T02:40:18.691Z,4.53
2019-06-20T02:41:25.924Z,3.93
2019-06-20T02:42:33.918Z,4.40
2019-06-20T02:43:41.133Z,3.87
2019-06-20T02:44:49.156Z,3.90
2019-06-20T02:45:56.497Z,4.00
2019-06-20T02:47:04.525Z,5.10
2019-06-20T02:48:11.848Z,3.73
2019-06-20T02:49:19.856Z,4.80
2019-06-20T02:50:27.591Z,4.33
2019-06-20T02:51:36.016Z,3.63
2019-06-20T02:52:43.270Z,6.73
2019-06-20T02:53:51.277Z,4.30
2019-06-20T02:54:58.501Z,4.63
2019-06-20T02:56:06.612Z,4.50
2019-06-20T02:57:13.852Z,3.73
2019-06-20T02:58:21.888Z,4.23
2019-06-20T02:59:29.128Z,3.97
2019-06-20T03:00:55.366Z,5.93
2019-06-20T03:02:02.576Z,3.77
2019-06-20T03:03:10.563Z,4.27
2019-06-20T03:04:17.789Z,3.77
2019-06-20T03:05:25.810Z,4.63
2019-06-20T03:06:33.040Z,5.50
2019-06-20T03:07:41.045Z,4.53
2019-06-20T03:08:48.283Z,5.67
2019-06-20T03:09:56.273Z,5.57
2019-06-20T03:11:03.513Z,5.73
2019-06-20T03:12:11.521Z,4.67
2019-06-20T03:13:18.822Z,4.53
2019-06-20T03:14:26.827Z,5.03
2019-06-20T03:15:34.172Z,4.43
2019-06-20T03:16:42.176Z,4.73
2019-06-20T03:17:49.407Z,5.37
2019-06-20T03:18:58.488Z,5.27
2019-06-20T03:20:06.168Z,4.97
2019-06-20T03:21:14.172Z,4.67
2019-06-20T03:22:21.381Z,5.17
2019-06-20T03:23:29.389Z,4.77
2019-06-20T03:24:36.612Z,4.87
2019-06-20T03:25:44.651Z,4.60
2019-06-20T03:26:51.879Z,4.30
2019-06-20T03:27:59.922Z,5.73
2019-06-20T03:29:07.254Z,3.97
2019-06-20T03:30:15.321Z,5.20
2019-06-20T03:31:22.547Z,5.47
2019-06-20T03:32:30.542Z,6.23
2019-06-20T03:33:37.749Z,4.90
2019-06-20T03:34:45.771Z,4.73
2019-06-20T03:35:53.002Z,5.40
2019-06-20T03:37:01.017Z,5.47
2019-06-20T03:38:08.213Z,4.93
2019-06-20T03:39:16.250Z,4.80
2019-06-20T03:40:23.650Z,4.33
2019-06-20T03:41:31.661Z,4.90
2019-06-20T03:42:38.883Z,4.50
2019-06-20T03:43:46.875Z,4.07
2019-06-20T03:45:02.243Z,4.60
2019-06-20T03:46:03.802Z,4.87
2019-06-20T03:47:11.014Z,4.90
2019-06-20T03:48:19.036Z,5.17
2019-06-20T03:49:27.309Z,5.30
2019-06-20T03:50:35.298Z,8.20
2019-06-20T03:51:42.496Z,5.20
2019-06-20T03:53:02.354Z,5.27
2019-06-20T03:54:10.079Z,5.27
2019-06-20T03:55:18.112Z,4.70
2019-06-20T03:56:25.319Z,5.23
2019-06-20T03:57:33.339Z,4.90
2019-06-20T03:58:40.565Z,4.27
2019-06-20T03:59:48.622Z,5.00
2019-06-20T04:00:55.842Z,4.87
2019-06-20T04:02:03.837Z,5.20
2019-06-20T04:03:11.060Z,5.10
2019-06-20T04:04:19.079Z,5.03
2019-06-20T04:05:26.320Z,5.33
2019-06-20T04:06:34.311Z,6.27
2019-06-20T04:07:41.521Z,4.83
2019-06-20T04:08:49.512Z,5.13
2019-06-20T04:09:56.725Z,5.60
2019-06-20T04:11:04.732Z,5.53
2019-06-20T04:12:11.954Z,5.57
2019-06-20T04:13:19.965Z,7.23
2019-06-20T04:14:27.200Z,4.70
2019-06-20T04:15:35.912Z,4.40
2019-06-20T04:16:43.137Z,6.43
2019-06-20T04:17:51.132Z,5.47
2019-06-20T04:18:58.340Z,4.87
2019-06-20T04:20:06.359Z,5.40
2019-06-20T04:21:13.585Z,5.77
2019-06-20T04:22:21.592Z,6.53
2019-06-20T04:23:28.818Z,4.80
2019-06-20T04:24:36.844Z,4.90
2019-06-20T04:25:44.050Z,4.80
2019-06-20T04:26:52.069Z,4.77
2019-06-20T04:27:59.294Z,4.63
2019-06-20T04:29:07.315Z,4.60
2019-06-20T04:30:14.919Z,5.73
2019-06-20T04:31:22.942Z,4.53
2019-06-20T04:32:30.160Z,5.10
2019-06-20T04:33:38.194Z,4.70
2019-06-20T04:34:45.371Z,5.20
2019-06-20T04:35:53.362Z,4.93
2019-06-20T04:37:00.589Z,4.73
2019-06-20T04:38:08.632Z,4.87
2019-06-20T04:39:19.566Z,5.20
2019-06-20T04:40:25.580Z,4.83
2019-06-20T04:41:32.786Z,5.47
2019-06-20T04:42:40.797Z,4.60
2019-06-20T04:43:48.699Z,4.80
2019-06-20T04:44:57.578Z,4.50
2019-06-20T04:46:13.594Z,4.60
2019-06-20T04:47:22.678Z,5.10
2019-06-20T04:48:29.904Z,4.80
2019-06-20T04:49:37.941Z,4.87
2019-06-20T04:50:45.152Z,4.40
2019-06-20T04:51:53.144Z,4.87
2019-06-20T04:53:00.357Z,4.17
2019-06-20T04:54:08.459Z,4.60
2019-06-20T04:55:16.635Z,4.20
2019-06-20T04:56:24.646Z,4.60
2019-06-20T04:57:31.853Z,4.73
2019-06-20T04:58:40.944Z,4.57
2019-06-20T04:59:50.534Z,4.87
2019-06-20T05:00:58.555Z,4.60
2019-06-20T05:02:05.828Z,4.73
2019-06-20T05:03:13.846Z,5.03
2019-06-20T05:04:21.072Z,5.57
2019-06-20T05:05:29.095Z,5.00
2019-06-20T05:06:36.380Z,4.87
2019-06-20T05:07:44.405Z,5.67
2019-06-20T05:08:51.627Z,5.10
2019-06-20T05:09:59.632Z,4.87
2019-06-20T05:11:06.843Z,4.77
2019-06-20T05:12:14.880Z,4.67
2019-06-20T05:13:23.591Z,4.40
2019-06-20T05:14:31.612Z,4.40
2019-06-20T05:15:51.931Z,5.00
2019-06-20T05:16:48.530Z,4.67
2019-06-20T05:17:55.765Z,4.50
2019-06-20T05:19:03.762Z,4.90
2019-06-20T05:20:11.582Z,4.93
2019-06-20T05:21:22.397Z,5.87
2019-06-20T05:22:28.495Z,4.27
2019-06-20T05:23:36.515Z,4.23
2019-06-20T05:24:43.756Z,4.10
2019-06-20T05:25:51.765Z,8.00
2019-06-20T05:26:58.994Z,3.53
2019-06-20T05:28:07.016Z,3.77
2019-06-20T05:29:14.235Z,3.33
2019-06-20T05:30:22.452Z,3.20
2019-06-20T05:31:29.664Z,3.37
2019-06-20T05:32:37.641Z,3.40
2019-06-20T05:33:44.850Z,3.70
2019-06-20T05:34:52.873Z,3.77
2019-06-20T05:36:01.677Z,3.50
2019-06-20T05:37:09.665Z,4.97
2019-06-20T05:38:16.885Z,4.37
2019-06-20T05:39:24.882Z,3.70
2019-06-20T05:40:32.154Z,4.10
2019-06-20T05:41:41.211Z,3.40
2019-06-20T05:42:48.442Z,4.20
2019-06-20T05:43:56.429Z,4.27
2019-06-20T05:45:03.970Z,5.10
2019-06-20T05:46:12.008Z,4.23
2019-06-20T05:47:19.264Z,4.37
2019-06-20T05:48:27.270Z,4.23
2019-06-20T05:49:34.516Z,4.80
2019-06-20T05:50:43.534Z,5.50
2019-06-20T05:51:50.748Z,4.83
2019-06-20T05:52:58.767Z,4.87
2019-06-20T05:54:06.137Z,4.20
2019-06-20T05:55:14.147Z,4.03
2019-06-20T05:56:21.359Z,4.57
2019-06-20T05:57:29.380Z,4.90
2019-06-20T05:58:36.606Z,5.10
2019-06-20T05:59:44.612Z,4.67
2019-06-20T06:00:51.828Z,5.17
2019-06-20T06:01:59.829Z,4.07
2019-06-20T06:03:07.447Z,4.20
2019-06-20T06:04:15.570Z,6.40
2019-06-20T06:05:22.812Z,4.20
2019-06-20T06:06:30.805Z,4.10
2019-06-20T06:07:38.044Z,4.07
2019-06-20T06:08:46.190Z,4.23
2019-06-20T06:09:53.396Z,3.90
2019-06-20T06:11:01.408Z,3.67
2019-06-20T06:12:09.770Z,6.17
2019-06-20T06:13:18.995Z,5.17
2019-06-20T06:14:26.209Z,4.00
2019-06-20T06:15:34.207Z,3.37
2019-06-20T06:16:44.089Z,3.67
2019-06-20T06:17:51.123Z,3.83
2019-06-20T06:18:58.332Z,3.30
2019-06-20T06:20:06.952Z,4.90
2019-06-20T06:21:14.193Z,3.10
2019-06-20T06:22:22.202Z,3.23
2019-06-20T06:23:29.424Z,2.90
2019-06-20T06:24:37.393Z,3.20
2019-06-20T06:25:44.613Z,3.87
2019-06-20T06:26:52.785Z,3.50
2019-06-20T06:28:00.015Z,3.40
2019-06-20T06:29:08.034Z,3.37
2019-06-20T06:30:17.072Z,4.20
2019-06-20T06:31:25.068Z,3.30
2019-06-20T06:32:40.147Z,2.93
2019-06-20T06:33:41.978Z,3.07
2019-06-20T06:34:49.216Z,3.30
2019-06-20T06:35:57.213Z,3.73
2019-06-20T06:37:04.511Z,3.17
2019-06-20T06:38:12.487Z,3.30
2019-06-20T06:39:19.718Z,3.77
2019-06-20T06:40:29.278Z,4.07
2019-06-20T06:41:36.489Z,2.83
2019-06-20T06:42:44.508Z,3.97
2019-06-20T06:43:51.722Z,3.10
2019-06-20T06:44:59.744Z,3.10
2019-06-20T06:46:06.975Z,3.30
2019-06-20T06:47:14.993Z,2.87
2019-06-20T06:48:22.233Z,2.77
2019-06-20T06:49:31.320Z,2.60
2019-06-20T06:50:38.712Z,2.37
2019-06-20T06:51:46.793Z,2.50
2019-06-20T06:52:54.002Z,2.30
2019-06-20T06:54:01.969Z,2.27
2019-06-20T06:55:09.714Z,4.17
2019-06-20T06:56:17.718Z,2.43
2019-06-20T06:57:26.009Z,2.67
2019-06-20T06:58:34.032Z,3.53
2019-06-20T06:59:41.244Z,2.10
2019-06-20T07:00:49.611Z,1.73
2019-06-20T07:01:56.821Z,1.60
2019-06-20T07:03:04.851Z,1.53
2019-06-20T07:04:12.071Z,1.97
2019-06-20T07:05:20.288Z,1.33
2019-06-20T07:06:27.536Z,1.10
2019-06-20T07:07:35.531Z,1.10
2019-06-20T07:08:42.819Z,1.13
2019-06-20T07:09:50.810Z,1.13
2019-06-20T07:10:58.035Z,2.87
2019-06-20T07:12:06.088Z,1.27
2019-06-20T07:13:13.268Z,1.40
2019-06-20T07:14:21.287Z,1.30
2019-06-20T07:15:28.529Z,1.37
2019-06-20T07:16:36.610Z,1.40
2019-06-20T07:17:43.843Z,1.20
2019-06-20T07:18:53.372Z,2.17
2019-06-20T07:20:00.588Z,1.70
2019-06-20T07:21:10.465Z,1.67
2019-06-20T07:22:17.676Z,1.53
2019-06-20T07:23:25.685Z,2.10
2019-06-20T07:24:32.897Z,2.40
2019-06-20T07:25:40.915Z,1.40
2019-06-20T07:26:48.126Z,2.70
2019-06-20T07:27:56.134Z,1.27
2019-06-20T07:29:03.393Z,1.50
2019-06-20T07:30:12.609Z,1.57
2019-06-20T07:31:19.829Z,3.63
2019-06-20T07:32:27.829Z,1.30
2019-06-20T07:33:35.054Z,1.37
2019-06-20T07:34:43.044Z,1.70
2019-06-20T07:35:51.228Z,1.30
2019-06-20T07:36:59.223Z,1.40
2019-06-20T07:38:06.434Z,1.30
2019-06-20T07:39:14.451Z,1.00
2019-06-20T07:40:21.653Z,1.60
2019-06-20T07:41:30.737Z,1.40
2019-06-20T07:42:38.215Z,1.30
2019-06-20T07:43:46.234Z,2.00
2019-06-20T07:44:53.447Z,1.80
2019-06-20T07:46:03.201Z,1.77
2019-06-20T07:47:17.440Z,1.97
2019-06-20T07:48:20.123Z,1.60
2019-06-20T07:49:27.345Z,2.50
2019-06-20T07:50:39.149Z,1.47
2019-06-20T07:51:44.287Z,2.30
2019-06-20T07:53:01.826Z,1.63
2019-06-20T07:54:01.249Z,1.67
2019-06-20T07:55:09.791Z,1.60
2019-06-20T07:56:17.032Z,1.60
2019-06-20T07:57:24.977Z,3.20
2019-06-20T07:58:32.220Z,1.60
2019-06-20T07:59:40.240Z,1.63
2019-06-20T08:00:47.467Z,1.90
2019-06-20T08:01:55.473Z,2.17
2019-06-20T08:03:02.697Z,2.00
2019-06-20T08:04:10.741Z,1.77
2019-06-20T08:05:18.769Z,2.60
2019-06-20T08:06:26.760Z,1.73
2019-06-20T08:07:33.988Z,2.10
2019-06-20T08:08:43.075Z,2.00
2019-06-20T08:09:50.376Z,1.50
2019-06-20T08:10:58.390Z,1.80
2019-06-20T08:12:05.695Z,1.70
2019-06-20T08:13:13.692Z,1.50
2019-06-20T08:14:20.983Z,1.50
2019-06-20T08:15:29.658Z,2.07
2019-06-20T08:16:36.871Z,1.93
2019-06-20T08:17:44.928Z,1.77
2019-06-20T08:18:52.185Z,2.37
2019-06-20T08:20:00.275Z,1.53
2019-06-20T08:21:07.508Z,2.00
2019-06-20T08:22:16.311Z,1.80
2019-06-20T08:23:23.534Z,2.73
2019-06-20T08:24:31.556Z,1.90
2019-06-20T08:25:38.783Z,2.03
2019-06-20T08:26:46.774Z,1.93
2019-06-20T08:27:54.108Z,1.87
2019-06-20T08:29:16.142Z,1.83
2019-06-20T08:30:11.332Z,1.77
2019-06-20T08:31:19.354Z,1.87
2019-06-20T08:32:26.570Z,1.70
2019-06-20T08:33:34.585Z,1.70
2019-06-20T08:34:41.826Z,1.90
2019-06-20T08:35:49.831Z,2.50
2019-06-20T08:36:57.701Z,2.03
2019-06-20T08:38:07.606Z,1.90
2019-06-20T08:39:15.214Z,2.17
2019-06-20T08:40:24.284Z,2.10
2019-06-20T08:41:31.525Z,1.77
2019-06-20T08:42:39.570Z,1.70
2019-06-20T08:43:46.772Z,1.33
2019-06-20T08:44:56.263Z,1.80
2019-06-20T08:46:04.558Z,2.20
2019-06-20T08:47:13.764Z,1.80
2019-06-20T08:48:21.050Z,1.53
2019-06-20T08:49:29.087Z,1.67
2019-06-20T08:50:36.707Z,2.67
2019-06-20T08:51:44.760Z,1.83
2019-06-20T08:52:51.996Z,1.87
2019-06-20T08:54:01.134Z,1.90
2019-06-20T08:55:09.294Z,1.93
2019-06-20T08:56:17.315Z,1.80
2019-06-20T08:57:24.539Z,2.43
2019-06-20T08:58:32.550Z,1.90
2019-06-20T08:59:39.798Z,1.97
2019-06-20T09:00:47.885Z,1.73
2019-06-20T09:01:57.972Z,2.07
2019-06-20T09:03:04.902Z,2.03
2019-06-20T09:04:12.135Z,2.10
2019-06-20T09:05:22.720Z,2.13
2019-06-20T09:06:29.947Z,1.90
2019-06-20T09:07:41.725Z,1.90
2019-06-20T09:08:47.919Z,1.93
2019-06-20T09:09:56.026Z,2.17
2019-06-20T09:11:04.072Z,2.47
2019-06-20T09:12:12.144Z,2.43
2019-06-20T09:13:19.370Z,2.40
2019-06-20T09:14:27.415Z,2.00
2019-06-20T09:15:34.633Z,2.13
2019-06-20T09:16:42.667Z,2.57
2019-06-20T09:17:49.877Z,2.20
2019-06-20T09:18:58.431Z,2.43
2019-06-20T09:20:07.304Z,2.07
2019-06-20T09:21:15.293Z,2.07
2019-06-20T09:22:22.519Z,2.63
2019-06-20T09:23:30.514Z,2.47
2019-06-20T09:24:37.751Z,2.33
2019-06-20T09:25:45.771Z,2.23
2019-06-20T09:26:53.916Z,2.33
2019-06-20T09:28:02.663Z,1.80
2019-06-20T09:29:10.000Z,2.30
2019-06-20T09:30:18.515Z,1.97
2019-06-20T09:31:25.747Z,2.50
2019-06-20T09:32:34.758Z,2.33
2019-06-20T09:33:42.002Z,3.37
2019-06-20T09:34:51.416Z,1.90
2019-06-20T09:35:59.561Z,2.47
2019-06-20T09:37:07.777Z,1.90
2019-06-20T09:38:15.002Z,2.30
2019-06-20T09:39:22.984Z,2.33
2019-06-20T09:40:30.795Z,1.80
2019-06-20T09:41:38.806Z,2.03
2019-06-20T09:42:46.042Z,1.93
2019-06-20T09:43:54.281Z,3.27
2019-06-20T09:45:02.848Z,2.07
2019-06-20T09:46:11.131Z,2.20
2019-06-20T09:47:18.367Z,2.23
2019-06-20T09:48:26.391Z,2.00
2019-06-20T09:49:33.634Z,2.80
2019-06-20T09:50:41.678Z,2.13
2019-06-20T09:51:50.254Z,2.40
2019-06-20T09:52:58.511Z,2.33
2019-06-20T09:54:05.964Z,2.63
2019-06-20T09:55:15.073Z,2.43
2019-06-20T09:56:22.280Z,2.27
2019-06-20T09:57:30.286Z,2.00
2019-06-20T09:58:37.521Z,2.10
2019-06-20T09:59:59.485Z,2.23
2019-06-20T10:00:55.124Z,1.90
2019-06-20T10:02:03.301Z,2.10
2019-06-20T10:03:11.715Z,1.67
2019-06-20T10:04:21.614Z,2.13
2019-06-20T10:05:28.774Z,2.23
2019-06-20T10:06:36.802Z,1.97
2019-06-20T10:07:45.535Z,2.50
2019-06-20T10:08:54.861Z,2.30
2019-06-20T10:10:02.379Z,1.67
2019-06-20T10:12:01.085Z,2.10
2019-06-20T10:13:09.197Z,3.07
2019-06-20T10:14:16.725Z,3.93
2019-06-20T10:15:26.980Z,2.43
2019-06-20T10:16:45.256Z,4.10
2019-06-20T10:17:43.968Z,2.30
2019-06-20T10:18:52.159Z,2.40
2019-06-20T10:20:00.494Z,2.07
2019-06-20T10:21:07.723Z,2.33
2019-06-20T10:22:15.740Z,2.30
2019-06-20T10:23:22.947Z,3.10
2019-06-20T10:24:30.940Z,2.13
2019-06-20T10:25:38.616Z,2.13
2019-06-20T10:26:47.866Z,2.37
2019-06-20T10:27:55.650Z,2.43
2019-06-20T10:29:03.716Z,2.00
2019-06-20T10:30:14.571Z,2.20
2019-06-20T10:31:21.125Z,2.17
2019-06-20T10:32:28.361Z,2.00
2019-06-20T10:33:36.443Z,3.53
2019-06-20T10:34:45.150Z,1.90
2019-06-20T10:35:53.379Z,1.73
2019-06-20T10:37:00.583Z,2.03
2019-06-20T10:38:08.587Z,2.70
2019-06-20T10:39:15.813Z,2.23
2019-06-20T10:40:26.025Z,2.00
2019-06-20T10:41:33.270Z,2.13
2019-06-20T10:42:44.417Z,1.77
2019-06-20T10:43:52.279Z,1.93
2019-06-20T10:45:00.332Z,3.40
2019-06-20T10:46:07.766Z,1.60
2019-06-20T10:47:15.788Z,1.97
2019-06-20T10:48:22.988Z,1.97
2019-06-20T10:49:31.003Z,2.10
2019-06-20T10:50:38.265Z,2.00
2019-06-20T10:51:47.592Z,2.50
2019-06-20T10:52:55.123Z,2.50
2019-06-20T10:54:03.253Z,3.27
2019-06-20T10:55:11.561Z,2.50
2019-06-20T10:56:19.580Z,2.93
2019-06-20T10:57:26.836Z,1.83
2019-06-20T10:58:34.875Z,2.30
2019-06-20T10:59:42.717Z,1.90
2019-06-20T11:00:50.734Z,1.60
2019-06-20T11:01:57.983Z,1.93
2019-06-20T11:03:07.551Z,2.27
2019-06-20T11:04:14.783Z,1.60
2019-06-20T11:05:23.562Z,1.70
2019-06-20T11:06:30.814Z,1.63
2019-06-20T11:07:38.875Z,1.47
2019-06-20T11:08:49.488Z,2.43
2019-06-20T11:09:57.499Z,1.93
2019-06-20T11:11:04.803Z,1.60
2019-06-20T11:12:12.812Z,1.80
2019-06-20T11:13:20.048Z,2.10
2019-06-20T11:14:28.070Z,1.43
2019-06-20T11:15:37.718Z,1.43
2019-06-20T11:16:47.141Z,1.57
2019-06-20T11:17:56.569Z,2.10
2019-06-20T11:19:04.234Z,2.77
2019-06-20T11:20:14.880Z,1.70
2019-06-20T11:21:22.889Z,1.97
2019-06-20T11:22:30.087Z,2.40
2019-06-20T11:23:39.327Z,3.07
2019-06-20T11:24:47.444Z,1.67
2019-06-20T11:25:55.552Z,1.80
2019-06-20T11:27:02.769Z,2.20
2019-06-20T11:28:10.789Z,1.63
2019-06-20T11:29:18.055Z,1.97
2019-06-20T11:30:26.608Z,1.80
2019-06-20T11:31:33.817Z,1.53
2019-06-20T11:32:41.841Z,1.87
2019-06-20T11:33:49.069Z,2.60
2019-06-20T11:34:57.137Z,2.20
2019-06-20T11:36:04.688Z,2.50
2019-06-20T11:37:12.753Z,1.77
2019-06-20T11:38:19.979Z,1.60
2019-06-20T11:39:27.971Z,1.83
2019-06-20T11:40:36.433Z,2.33
2019-06-20T11:41:44.901Z,1.70
2019-06-20T11:42:52.122Z,2.23
2019-06-20T11:44:00.148Z,1.80
2019-06-20T11:45:09.293Z,1.70
2019-06-20T11:46:17.269Z,1.90
2019-06-20T11:47:24.498Z,1.93
2019-06-20T11:48:32.486Z,2.20
2019-06-20T11:49:40.414Z,1.53
2019-06-20T11:50:48.667Z,1.90
2019-06-20T11:51:56.487Z,1.90
2019-06-20T11:53:04.689Z,2.20
2019-06-20T11:54:11.914Z,1.70
2019-06-20T11:55:20.342Z,1.87
2019-06-20T11:56:27.568Z,2.57
2019-06-20T11:57:35.574Z,3.03
2019-06-20T11:58:42.801Z,2.13
2019-06-20T11:59:50.859Z,1.90
2019-06-20T12:01:03.712Z,2.10
2019-06-20T12:02:07.882Z,1.80
2019-06-20T12:03:15.101Z,1.77
2019-06-20T12:04:23.090Z,2.57
2019-06-20T12:05:30.312Z,2.00
2019-06-20T12:06:38.464Z,2.03
2019-06-20T12:07:47.769Z,2.27
2019-06-20T12:08:56.615Z,1.80
2019-06-20T12:10:04.031Z,2.20
2019-06-20T12:11:12.040Z,2.03
2019-06-20T12:12:19.309Z,1.70
2019-06-20T12:13:27.302Z,1.93
2019-06-20T12:14:34.547Z,2.80
2019-06-20T12:15:42.886Z,1.63
2019-06-20T12:16:50.148Z,1.70
2019-06-20T12:17:58.156Z,1.60
2019-06-20T12:19:05.426Z,2.40
2019-06-20T12:20:15.401Z,2.03
2019-06-20T12:21:22.608Z,1.80
2019-06-20T12:22:30.629Z,1.83
2019-06-20T12:23:39.022Z,1.70
2019-06-20T12:24:48.888Z,1.90
2019-06-20T12:25:56.117Z,1.70
2019-06-20T12:27:04.253Z,1.53
2019-06-20T12:28:11.499Z,1.70
2019-06-20T12:29:19.523Z,1.90
2019-06-20T12:30:27.152Z,1.70
2019-06-20T12:31:35.170Z,2.00
2019-06-20T12:32:42.531Z,2.13
2019-06-20T12:33:50.558Z,2.27
2019-06-20T12:34:57.846Z,2.33
2019-06-20T12:36:06.043Z,1.83
2019-06-20T12:37:13.269Z,1.80
2019-06-20T12:38:21.293Z,1.83
2019-06-20T12:39:28.523Z,1.90
2019-06-20T12:40:39.136Z,2.03
2019-06-20T12:41:45.637Z,2.33
2019-06-20T12:42:53.639Z,1.90
2019-06-20T12:44:00.872Z,1.37
2019-06-20T12:45:10.797Z,2.43
2019-06-20T12:46:18.971Z,1.87
2019-06-20T12:47:26.976Z,1.63
2019-06-20T12:48:34.158Z,1.87
2019-06-20T12:49:42.162Z,2.77
2019-06-20T12:50:49.629Z,2.30
2019-06-20T12:51:57.679Z,1.80
2019-06-20T12:53:04.921Z,1.57
2019-06-20T12:54:13.123Z,1.53
2019-06-20T12:55:20.384Z,2.00
2019-06-20T12:56:28.596Z,1.83
2019-06-20T12:57:35.836Z,1.83
2019-06-20T12:58:44.526Z,1.93
2019-06-20T12:59:51.937Z,1.87
2019-06-20T13:00:59.947Z,1.70
2019-06-20T13:02:07.157Z,1.97
2019-06-20T13:03:15.151Z,1.90
2019-06-20T13:04:22.372Z,1.87
2019-06-20T13:05:30.499Z,1.67
2019-06-20T13:06:38.822Z,2.17
2019-06-20T13:07:47.517Z,1.80
2019-06-20T13:08:54.967Z,2.17
2019-06-20T13:10:02.996Z,1.70
2019-06-20T13:11:10.443Z,4.83
2019-06-20T13:12:18.537Z,1.70
2019-06-20T13:13:26.818Z,2.33
2019-06-20T13:14:34.833Z,1.60
2019-06-20T13:15:42.493Z,1.93
2019-06-20T13:16:50.638Z,1.70
2019-06-20T13:17:57.861Z,1.57
2019-06-20T13:19:05.986Z,1.60
2019-06-20T13:20:14.303Z,1.77
2019-06-20T13:21:22.303Z,1.73
2019-06-20T13:22:29.540Z,2.00
2019-06-20T13:23:38.621Z,3.87
2019-06-20T13:24:47.204Z,1.80
2019-06-20T13:25:55.359Z,1.80
2019-06-20T13:27:02.586Z,1.70
2019-06-20T13:28:10.612Z,1.57
2019-06-20T13:29:17.837Z,2.10
2019-06-20T13:30:26.050Z,1.50
2019-06-20T13:31:33.275Z,1.77
2019-06-20T13:32:42.108Z,1.77
2019-06-20T13:33:50.204Z,1.50
2019-06-20T13:34:58.206Z,1.60
2019-06-20T13:36:05.524Z,2.00
2019-06-20T13:37:15.563Z,1.60
2019-06-20T13:38:22.535Z,2.13
2019-06-20T13:39:30.563Z,2.37
2019-06-20T13:40:39.574Z,1.10
2019-06-20T13:41:48.059Z,1.83
2019-06-20T13:42:55.391Z,1.93
2019-06-20T13:44:04.738Z,1.60
2019-06-20T13:45:22.861Z,1.47
2019-06-20T13:46:30.848Z,4.30
2019-06-20T13:47:39.711Z,3.20
2019-06-20T13:48:49.682Z,3.33
2019-06-20T13:49:56.935Z,1.60
2019-06-20T13:51:04.960Z,3.10
2019-06-20T13:52:12.184Z,3.90
2019-06-20T13:53:20.206Z,2.73
2019-06-20T13:54:27.444Z,8.10
2019-06-20T13:55:36.246Z,8.47
2019-06-20T13:56:43.629Z,8.83
2019-06-20T13:57:51.686Z,7.07
2019-06-20T13:58:58.933Z,7.33
2019-06-20T14:00:08.630Z,5.43
2019-06-20T14:01:15.972Z,4.43
2019-06-20T14:02:23.978Z,2.73
2019-06-20T14:03:31.206Z,5.47
2019-06-20T14:04:41.082Z,4.37
2019-06-20T14:05:49.780Z,3.00
2019-06-20T14:06:57.923Z,3.67
2019-06-20T14:08:05.179Z,4.67
2019-06-20T14:09:13.222Z,5.87
2019-06-20T14:10:20.646Z,5.40
2019-06-20T14:11:28.666Z,8.13
2019-06-20T14:12:35.890Z,10.40
2019-06-20T14:13:47.702Z,10.20
2019-06-20T14:14:52.797Z,5.70
2019-06-20T14:16:00.793Z,5.33
2019-06-20T14:17:07.977Z,2.93
2019-06-20T14:18:15.979Z,2.83
2019-06-20T14:19:23.176Z,3.00
2019-06-20T14:20:31.186Z,2.20
2019-06-20T14:21:38.394Z,5.27
2019-06-20T14:22:46.413Z,3.03
2019-06-20T14:23:53.921Z,1.73
2019-06-20T14:25:01.915Z,3.20
2019-06-20T14:26:09.157Z,3.10
2019-06-20T14:27:17.160Z,2.57
2019-06-20T14:28:24.362Z,2.77
2019-06-20T14:29:32.379Z,5.03
2019-06-20T14:30:39.704Z,2.90
2019-06-20T14:31:47.701Z,2.43
2019-06-20T14:32:56.011Z,1.80
2019-06-20T14:34:04.154Z,2.47
2019-06-20T14:35:11.808Z,2.10
2019-06-20T14:36:19.820Z,2.50
2019-06-20T14:37:27.049Z,3.73
2019-06-20T14:38:35.048Z,1.97
2019-06-20T14:39:42.274Z,2.90
2019-06-20T14:40:50.286Z,2.97
2019-06-20T14:41:57.491Z,4.20
2019-06-20T14:43:05.496Z,2.53
2019-06-20T14:44:12.701Z,4.27
2019-06-20T14:45:21.283Z,7.07
2019-06-20T14:46:28.517Z,8.20
2019-06-20T14:47:36.532Z,8.13
2019-06-20T14:48:45.532Z,7.60
2019-06-20T14:49:53.431Z,5.83
2019-06-20T14:51:00.715Z,3.87
2019-06-20T14:52:08.724Z,4.03
2019-06-20T14:53:15.934Z,2.30
2019-06-20T14:54:23.925Z,2.33
2019-06-20T14:55:31.153Z,3.17
2019-06-20T14:56:39.178Z,2.70
2019-06-20T14:57:48.253Z,2.17
2019-06-20T14:58:56.133Z,2.27
2019-06-20T15:00:03.415Z,2.37
2019-06-20T15:01:12.591Z,2.33
2019-06-20T15:02:19.803Z,2.80
2019-06-20T15:03:27.825Z,1.90
2019-06-20T15:04:35.049Z,3.80
2019-06-20T15:05:44.741Z,2.17